Time;durP1;ratioP1;P1;durP2;ratioP2;P2;SDS_P1;SDS_P2;PMS_P1;PMS_P2;Temp;Humidity;BMP_temperature;BMP_pressure;BME280_temperature;BME280_humidity;BME280_pressure;Samples;Min_cycle;Max_cycle;Signal;HPM_P1;HPM_P2
2022/01/22 00:00:13;;;;;;;;;;;;;;;14.89;56.71;102994.75;1057805;28;622;-60
2022/01/22 00:01:03;;;;;;;;;;;;;;;14.89;56.78;102996.56;1058364;28;1670;-61
2022/01/22 00:01:53;;;;;;;;;;;;;;;14.89;56.73;102992.06;1053792;28;930;-61
2022/01/22 00:02:44;;;;;;;;;;;;;;;14.88;56.66;102989.47;1055095;28;647;-61
2022/01/22 00:03:34;;;;;;;;;;;;;;;14.88;56.75;102990.31;1059000;28;918;-61
2022/01/22 00:04:25;;;;;;;;;;;;;;;14.87;57.12;102988.59;1058351;28;719;-61
2022/01/22 00:05:15;;;;;;;;;;;;;;;14.88;56.82;102990.31;1058949;28;1281;-61
2022/01/22 00:06:05;;;;;;;;;;;;;;;14.88;57.20;102984.97;1053790;28;845;-61
2022/01/22 00:06:58;;;;;;;;;;;;;;;14.89;57.35;102986.69;1053971;28;1295;-61
2022/01/22 00:07:48;;;;;;;;;;;;;;;14.89;57.01;102984.03;1057687;28;951;-61
2022/01/22 00:08:39;;;;;;;;;;;;;;;14.89;57.28;102981.34;1058578;28;775;-61
2022/01/22 00:09:36;;;;;;;;;;;;;;;14.89;56.64;102980.47;1058452;28;956;-61
2022/01/22 00:10:26;;;;;;;;;;;;;;;14.88;57.22;102986.78;1058597;28;894;-61
2022/01/22 00:11:17;;;;;;;;;;;;;;;14.88;56.92;102984.09;1058462;28;646;-61
2022/01/22 00:12:10;;;;;;;;;;;;;;;14.89;57.31;102989.38;1058402;28;739;-60
2022/01/22 00:15:00;;;;;;;;;;;;;;;14.87;57.12;102983.22;1059492;28;646;-60
2022/01/22 00:15:50;;;;;;;;;;;;;;;14.86;57.12;102981.50;1058518;28;696;-62
2022/01/22 00:16:41;;;;;;;;;;;;;;;14.87;56.90;102976.97;1058321;28;795;-62
2022/01/22 00:17:31;;;;;;;;;;;;;;;14.86;56.74;102975.28;1058534;28;739;-63
2022/01/22 00:18:21;;;;;;;;;;;;;;;14.84;56.89;102975.34;1058012;28;1702;-63
2022/01/22 00:19:12;;;;;;;;;;;;;;;14.85;57.01;102968.16;1058940;28;785;-63
2022/01/22 00:20:02;;;;;;;;;;;;;;;14.86;57.52;102969.91;1058913;28;790;-63
2022/01/22 00:20:53;;;;;;;;;;;;;;;14.84;57.00;102972.66;1059582;27;794;-64
2022/01/22 00:21:43;;;;;;;;;;;;;;;14.84;57.01;102969.97;1058332;28;766;-63
2022/01/22 00:22:35;;;;;;;;;;;;;;;14.85;57.10;102969.03;1058897;28;773;-63
2022/01/22 00:23:28;;;;;;;;;;;;;;;14.86;57.01;102970.78;1058432;28;622;-64
2022/01/22 00:24:18;;;;;;;;;;;;;;;14.86;57.08;102973.47;1058340;28;641;-64
2022/01/22 00:25:08;;;;;;;;;;;;;;;14.86;57.47;102976.13;1058782;28;756;-63
2022/01/22 00:25:59;;;;;;;;;;;;;;;14.86;57.26;102976.13;1058359;28;868;-63
2022/01/22 00:26:49;;;;;;;;;;;;;;;14.84;57.28;102978.03;1058721;28;1779;-63
2022/01/22 00:27:40;;;;;;;;;;;;;;;14.83;57.39;102965.53;1055330;28;642;-63
2022/01/22 00:28:30;;;;;;;;;;;;;;;14.83;57.11;102970.03;1054718;28;633;-63
2022/01/22 00:29:21;;;;;;;;;;;;;;;14.82;57.16;102969.19;1054756;28;673;-64
2022/01/22 00:30:11;;;;;;;;;;;;;;;14.83;57.53;102973.59;1054714;28;711;-63
2022/01/22 00:31:01;;;;;;;;;;;;;;;14.83;57.31;102975.41;1054559;28;1969;-63
2022/01/22 00:31:52;;;;;;;;;;;;;;;14.83;56.92;102973.59;1054674;28;683;-62
2022/01/22 00:32:42;;;;;;;;;;;;;;;14.82;57.48;102974.53;1054726;28;778;-63
2022/01/22 00:33:33;;;;;;;;;;;;;;;14.82;57.12;102974.53;1054704;28;626;-63
2022/01/22 00:34:23;;;;;;;;;;;;;;;14.83;57.01;102981.66;1055244;28;771;-63
2022/01/22 00:35:13;;;;;;;;;;;;;;;14.83;56.88;102970.91;1054548;28;743;-63
2022/01/22 00:36:04;;;;;;;;;;;;;;;14.83;57.42;102976.28;1054642;28;601;-63
2022/01/22 00:36:54;;;;;;;;;;;;;;;14.82;57.45;102974.53;1054647;28;957;-63
2022/01/22 00:37:45;;;;;;;;;;;;;;;14.79;57.11;102972.00;1054689;28;640;-63
2022/01/22 00:38:35;;;;;;;;;;;;;;;14.80;57.34;102975.56;1058613;28;1808;-63
2022/01/22 00:39:26;;;;;;;;;;;;;;;14.80;57.49;102967.50;1058269;28;947;-63
2022/01/22 00:40:16;;;;;;;;;;;;;;;14.80;57.50;102963.00;1058288;28;1720;-63
2022/01/22 00:41:07;;;;;;;;;;;;;;;14.82;57.40;102973.69;1058216;28;785;-63
2022/01/22 00:41:57;;;;;;;;;;;;;;;14.80;57.24;102965.69;1058406;28;760;-63
2022/01/22 00:42:47;;;;;;;;;;;;;;;14.80;57.50;102968.38;1058288;28;980;-63
2022/01/22 00:43:38;;;;;;;;;;;;;;;14.81;57.55;102963.88;1058250;28;868;-63
2022/01/22 00:44:28;;;;;;;;;;;;;;;14.80;57.10;102965.69;1058336;28;690;-63
2022/01/22 00:45:19;;;;;;;;;;;;;;;14.80;57.18;102968.38;1058213;28;715;-63
2022/01/22 00:46:09;;;;;;;;;;;;;;;14.80;57.20;102968.38;1058109;28;1677;-63
2022/01/22 00:47:00;;;;;;;;;;;;;;;14.80;57.52;102965.69;1058129;28;644;-62
2022/01/22 00:47:51;;;;;;;;;;;;;;;14.78;57.58;102967.56;1056930;28;715;-61
2022/01/22 00:48:41;;;;;;;;;;;;;;;14.78;57.23;102972.94;1058394;28;673;-60
2022/01/22 00:49:32;;;;;;;;;;;;;;;14.77;57.31;102968.53;1058113;28;852;-61
2022/01/22 00:50:22;;;;;;;;;;;;;;;14.77;57.41;102963.16;1057809;28;677;-60
2022/01/22 00:51:12;;;;;;;;;;;;;;;14.77;58.03;102973.88;1059246;27;1976;-60
2022/01/22 00:52:04;;;;;;;;;;;;;;;14.76;57.20;102974.84;1059243;27;1369;-60
2022/01/22 00:52:54;;;;;;;;;;;;;;;14.76;57.30;102969.47;1057707;28;634;-61
2022/01/22 00:53:44;;;;;;;;;;;;;;;14.74;57.76;102965.97;1053644;28;961;-61
2022/01/22 00:54:35;;;;;;;;;;;;;;;14.74;57.30;102971.34;1054900;28;693;-61
2022/01/22 00:55:25;;;;;;;;;;;;;;;14.73;57.55;102969.59;1058553;28;1784;-61
2022/01/22 00:56:16;;;;;;;;;;;;;;;14.75;57.80;102966.84;1057631;28;827;-61
2022/01/22 00:57:06;;;;;;;;;;;;;;;14.75;57.53;102972.22;1054244;28;790;-63
2022/01/22 00:57:56;;;;;;;;;;;;;;;14.76;57.46;102968.59;1054176;28;762;-62
2022/01/22 00:58:47;;;;;;;;;;;;;;;14.77;57.76;102973.88;1058689;28;669;-63
2022/01/22 00:59:37;;;;;;;;;;;;;;;14.77;58.05;102973.00;1057830;28;653;-63
2022/01/22 01:00:28;;;;;;;;;;;;;;;14.77;57.30;102973.00;1058217;28;838;-63
2022/01/22 01:01:18;;;;;;;;;;;;;;;14.78;57.28;102974.75;1058296;28;659;-62
2022/01/22 01:02:09;;;;;;;;;;;;;;;14.78;57.79;102975.63;1058094;28;759;-62
2022/01/22 01:02:59;;;;;;;;;;;;;;;14.78;57.32;102975.63;1054792;28;1500;-62
2022/01/22 01:03:49;;;;;;;;;;;;;;;14.77;57.87;102979.25;1055502;28;1862;-62
2022/01/22 01:04:40;;;;;;;;;;;;;;;14.77;57.58;102976.56;1057653;28;685;-61
2022/01/22 01:05:30;;;;;;;;;;;;;;;14.77;57.45;102979.25;1058619;28;1936;-62
2022/01/22 01:06:21;;;;;;;;;;;;;;;14.78;57.83;102981.00;1058086;28;761;-62
2022/01/22 01:07:11;;;;;;;;;;;;;;;14.77;57.98;102981.06;1058045;28;969;-62
2022/01/22 01:08:01;;;;;;;;;;;;;;;14.77;57.98;102979.25;1058128;28;704;-62
2022/01/22 01:08:52;;;;;;;;;;;;;;;14.75;57.36;102972.22;1058174;28;677;-62
2022/01/22 01:09:42;;;;;;;;;;;;;;;14.75;57.88;102981.13;1058372;28;683;-62
2022/01/22 01:10:33;;;;;;;;;;;;;;;14.75;57.79;102980.28;1058176;28;896;-62
2022/01/22 01:11:26;;;;;;;;;;;;;;;14.73;57.50;102979.47;1058272;28;731;-62
2022/01/22 01:12:16;;;;;;;;;;;;;;;14.73;57.92;102980.34;1058192;28;669;-62
2022/01/22 01:13:07;;;;;;;;;;;;;;;14.73;57.60;102974.97;1058125;28;689;-62
2022/01/22 01:14:01;;;;;;;;;;;;;;;14.72;57.88;102970.56;1058216;28;645;-62
2022/01/22 01:15:09;;;;;;;;;;;;;;;14.73;57.55;102971.41;1058702;28;841;-62
2022/01/22 01:16:04;;;;;;;;;;;;;;;14.73;57.91;102966.91;1058181;28;637;-62
2022/01/22 01:17:11;;;;;;;;;;;;;;;14.72;57.59;102973.22;1058631;28;684;-62
2022/01/22 01:33:19;;;;;;;;;;;;;;;14.69;57.64;102981.44;1059223;27;740;-62
2022/01/22 01:34:15;;;;;;;;;;;;;;;14.70;57.92;102996.59;1057962;28;718;-61
2022/01/22 01:35:07;;;;;;;;;;;;;;;14.70;58.14;102984.97;1058058;28;656;-61
2022/01/22 01:35:58;;;;;;;;;;;;;;;14.70;57.78;102985.84;1058024;28;716;-61
2022/01/22 01:36:48;;;;;;;;;;;;;;;14.71;57.39;102987.59;1057486;28;660;-62
2022/01/22 01:37:39;;;;;;;;;;;;;;;14.69;57.95;102985.97;1058583;28;736;-61
2022/01/22 01:38:34;;;;;;;;;;;;;;;14.70;58.05;102985.84;1057546;28;658;-62
2022/01/22 01:39:30;;;;;;;;;;;;;;;14.71;57.47;102986.72;1058582;28;637;-62
2022/01/22 01:40:23;;;;;;;;;;;;;;;14.70;57.22;102985.84;1057978;28;802;-62
2022/01/22 01:41:23;;;;;;;;;;;;;;;14.69;57.64;102985.97;1058098;28;750;-62
2022/01/22 01:42:24;;;;;;;;;;;;;;;14.69;57.90;102986.78;1058580;28;806;-62
2022/01/22 01:43:22;;;;;;;;;;;;;;;14.70;57.49;102990.34;1057953;28;689;-62
2022/01/22 01:44:13;;;;;;;;;;;;;;;14.69;57.54;102984.13;1058570;28;694;-63
2022/01/22 01:45:04;;;;;;;;;;;;;;;14.69;57.83;102986.78;1057939;28;602;-63
2022/01/22 01:45:54;;;;;;;;;;;;;;;14.69;57.88;102977.91;1058001;28;1163;-63
2022/01/22 01:46:45;;;;;;;;;;;;;;;14.69;58.19;102984.13;1057986;28;645;-62
2022/01/22 01:47:37;;;;;;;;;;;;;;;14.69;58.13;102986.78;1058161;28;712;-62
2022/01/22 01:48:31;;;;;;;;;;;;;;;14.69;57.83;102978.75;1053479;28;702;-62
2022/01/22 01:49:22;;;;;;;;;;;;;;;14.70;57.71;102980.47;1053583;28;686;-63
2022/01/22 01:50:12;;;;;;;;;;;;;;;14.69;57.85;102967.16;1053033;28;791;-63
2022/01/22 01:51:03;;;;;;;;;;;;;;;14.68;57.91;102976.16;1053277;28;1991;-63
2022/01/22 01:51:55;;;;;;;;;;;;;;;14.70;57.43;102982.28;1057376;28;1081;-63
2022/01/22 01:53:11;;;;;;;;;;;;;;;14.69;57.92;102976.06;1057901;28;785;-63
2022/01/22 01:55:14;;;;;;;;;;;;;;;14.68;57.87;102982.41;1037273;28;913;-63
2022/01/22 01:57:25;;;;;;;;;;;;;;;14.67;57.30;102985.16;1054286;28;685;-63
2022/01/22 01:58:18;;;;;;;;;;;;;;;14.67;57.71;102982.47;1054318;28;861;-61
2022/01/22 01:59:08;;;;;;;;;;;;;;;14.66;57.92;102986.97;1053798;28;649;-61
2022/01/22 01:59:59;;;;;;;;;;;;;;;14.67;58.23;102991.41;1053764;28;645;-61
2022/01/22 02:00:49;;;;;;;;;;;;;;;14.68;57.64;102989.59;1053723;28;962;-61
2022/01/22 02:01:40;;;;;;;;;;;;;;;14.67;57.52;102991.41;1049350;28;644;-61
2022/01/22 02:02:32;;;;;;;;;;;;;;;14.67;57.60;102987.84;1049799;28;867;-61
2022/01/22 02:03:23;;;;;;;;;;;;;;;14.67;57.76;102985.16;1054312;28;779;-60
2022/01/22 02:04:14;;;;;;;;;;;;;;;14.66;57.71;102976.22;1053842;28;668;-60
2022/01/22 02:05:04;;;;;;;;;;;;;;;14.65;58.02;102977.19;1053820;28;776;-60
2022/01/22 02:05:55;;;;;;;;;;;;;;;14.65;57.45;102977.19;1053652;28;658;-60
2022/01/22 02:06:45;;;;;;;;;;;;;;;14.66;57.78;102978.03;1053706;28;765;-60
2022/01/22 02:07:38;;;;;;;;;;;;;;;14.67;57.83;102982.47;1053372;28;665;-61
2022/01/22 02:08:29;;;;;;;;;;;;;;;14.64;58.18;102980.81;1053681;28;685;-61
2022/01/22 02:09:20;;;;;;;;;;;;;;;14.66;57.68;102980.72;1053806;28;1832;-61
2022/01/22 02:10:14;;;;;;;;;;;;;;;14.66;57.59;102981.59;1054211;28;668;-60
2022/01/22 02:11:05;;;;;;;;;;;;;;;14.66;57.88;102989.66;1054132;28;1955;-60
2022/01/22 02:12:09;;;;;;;;;;;;;;;14.64;57.78;102990.66;1054291;28;868;-61
2022/01/22 02:23:37;;;;;;;;;;;;;;;14.63;57.61;102991.59;1058418;28;795;-62
2022/01/22 02:24:27;;;;;;;;;;;;;;;14.63;57.78;103000.53;1058001;28;664;-62
2022/01/22 02:25:18;;;;;;;;;;;;;;;14.63;58.32;102995.16;1058368;28;776;-62
2022/01/22 02:26:09;;;;;;;;;;;;;;;14.64;58.38;103001.41;1057259;28;622;-61
2022/01/22 02:26:59;;;;;;;;;;;;;;;14.61;57.92;102991.69;1057912;28;733;-62
2022/01/22 02:27:50;;;;;;;;;;;;;;;14.62;57.83;102990.72;1057637;28;728;-62
2022/01/22 02:28:40;;;;;;;;;;;;;;;14.63;57.50;102997.84;1058405;28;742;-62
2022/01/22 02:29:30;;;;;;;;;;;;;;;14.62;57.82;102995.22;1057956;28;715;-61
2022/01/22 02:30:26;;;;;;;;;;;;;;;14.63;57.75;102988.91;1058445;28;770;-62
2022/01/22 02:33:39;;;;;;;;;;;;;;;14.64;57.82;102996.91;1059079;27;671;-63
2022/01/22 02:34:41;;;;;;;;;;;;;;;14.59;58.41;102999.78;1054274;28;915;-62
2022/01/22 02:37:05;;;;;;;;;;;;;;;14.60;57.79;102992.63;1045348;28;1773;-62
2022/01/22 02:38:05;;;;;;;;;;;;;;;14.59;57.99;102990.88;1054700;28;835;-63
2022/01/22 02:40:10;;;;;;;;;;;;;;;14.58;57.72;102991.81;1054562;28;711;-63
2022/01/22 02:41:00;;;;;;;;;;;;;;;14.57;58.06;102996.31;1053713;28;645;-63
2022/01/22 02:41:52;;;;;;;;;;;;;;;14.56;58.15;102994.56;1054236;28;633;-63
2022/01/22 02:42:42;;;;;;;;;;;;;;;14.57;58.30;102992.75;1054136;28;756;-63
2022/01/22 02:43:33;;;;;;;;;;;;;;;14.57;58.15;102987.38;1054148;28;700;-63
2022/01/22 02:44:34;;;;;;;;;;;;;;;14.59;57.98;102988.19;1053614;28;715;-63
2022/01/22 02:45:24;;;;;;;;;;;;;;;14.56;58.04;102997.25;1053751;28;705;-62
2022/01/22 02:46:16;;;;;;;;;;;;;;;14.56;57.72;102989.19;1054242;28;618;-63
2022/01/22 02:47:07;;;;;;;;;;;;;;;14.58;58.13;102983.75;1053609;28;669;-63
2022/01/22 02:47:58;;;;;;;;;;;;;;;14.58;57.89;102989.13;1053698;28;716;-63
2022/01/22 02:48:48;;;;;;;;;;;;;;;14.57;57.79;102985.56;1054052;28;875;-62
2022/01/22 02:49:38;;;;;;;;;;;;;;;14.57;58.44;102984.72;1054145;28;762;-62
2022/01/22 02:50:29;;;;;;;;;;;;;;;14.57;58.06;102980.22;1054086;28;923;-62
2022/01/22 02:51:19;;;;;;;;;;;;;;;14.56;57.58;102983.84;1054033;28;1972;-62
2022/01/22 02:52:10;;;;;;;;;;;;;;;14.59;58.03;102985.50;1054014;28;934;-62
2022/01/22 02:53:00;;;;;;;;;;;;;;;14.57;57.59;102979.34;1053970;28;883;-62
2022/01/22 02:53:54;;;;;;;;;;;;;;;14.57;58.08;102979.34;1054128;28;641;-62
2022/01/22 02:54:44;;;;;;;;;;;;;;;14.57;57.68;102972.16;1054659;28;967;-62
2022/01/22 02:55:35;;;;;;;;;;;;;;;14.56;57.84;102977.59;1054113;28;697;-62
2022/01/22 02:56:25;;;;;;;;;;;;;;;14.56;57.87;102974.91;1054684;28;614;-62
2022/01/22 02:57:16;;;;;;;;;;;;;;;14.56;58.39;102980.28;1053587;28;769;-62
2022/01/22 02:58:06;;;;;;;;;;;;;;;14.57;58.10;102979.34;1054084;28;641;-62
2022/01/22 02:58:59;;;;;;;;;;;;;;;14.56;57.79;102967.75;1054065;28;792;-62
2022/01/22 02:59:49;;;;;;;;;;;;;;;14.56;57.59;102980.28;1054146;28;782;-62
2022/01/22 03:00:40;;;;;;;;;;;;;;;14.56;58.35;102982.97;1054194;28;657;-62
2022/01/22 03:01:31;;;;;;;;;;;;;;;14.57;58.47;102987.38;1053581;28;641;-62
2022/01/22 03:02:22;;;;;;;;;;;;;;;14.55;58.45;102982.09;1054130;28;686;-62
2022/01/22 03:03:12;;;;;;;;;;;;;;;14.55;57.79;102990.16;1053464;28;788;-62
2022/01/22 03:04:03;;;;;;;;;;;;;;;14.55;57.76;102991.97;1054067;28;680;-62
2022/01/22 03:04:53;;;;;;;;;;;;;;;14.55;58.33;102989.28;1054133;28;594;-62
2022/01/22 03:05:43;;;;;;;;;;;;;;;14.55;57.94;102989.28;1054106;28;1207;-62
2022/01/22 03:06:34;;;;;;;;;;;;;;;14.54;58.00;102988.41;1054227;28;677;-62
2022/01/22 03:07:25;;;;;;;;;;;;;;;14.54;58.32;102990.22;1053908;28;758;-62
2022/01/22 03:08:15;;;;;;;;;;;;;;;14.54;58.48;102990.22;1053586;28;590;-62
2022/01/22 03:09:11;;;;;;;;;;;;;;;14.55;58.33;102986.59;1053495;28;664;-62
2022/01/22 03:10:03;;;;;;;;;;;;;;;14.54;58.48;102985.72;1054578;28;945;-62
2022/01/22 03:10:54;;;;;;;;;;;;;;;14.54;57.96;102990.22;1053384;28;1894;-62
2022/01/22 03:12:11;;;;;;;;;;;;;;;14.53;57.91;102988.47;1054692;28;840;-62
2022/01/22 03:13:34;;;;;;;;;;;;;;;14.54;58.10;102992.91;1054036;28;739;-62
2022/01/22 03:15:11;;;;;;;;;;;;;;;14.55;58.34;102991.97;1054157;28;668;-61
2022/01/22 03:21:55;;;;;;;;;;;;;;;14.52;57.95;102989.41;1054716;28;598;-61
2022/01/22 03:27:24;;;;;;;;;;;;;;;14.53;58.15;102988.47;1054561;28;617;-63
2022/01/22 03:28:19;;;;;;;;;;;;;;;14.53;58.23;102993.84;1054048;28;760;-63
2022/01/22 03:29:15;;;;;;;;;;;;;;;14.53;58.20;102988.47;1053981;28;758;-63
2022/01/22 03:30:06;;;;;;;;;;;;;;;14.52;58.51;102992.97;1053462;28;721;-62
2022/01/22 03:30:56;;;;;;;;;;;;;;;14.52;58.64;102995.66;1049002;28;1961;-63
2022/01/22 03:31:47;;;;;;;;;;;;;;;14.52;58.33;102989.41;1049629;28;668;-63
2022/01/22 03:32:42;;;;;;;;;;;;;;;14.52;57.94;102992.09;1049530;28;848;-62
2022/01/22 03:33:33;;;;;;;;;;;;;;;14.52;58.51;102997.47;1050194;28;684;-61
2022/01/22 03:34:23;;;;;;;;;;;;;;;14.52;58.39;102997.47;1052871;28;945;-61
2022/01/22 03:35:36;;;;;;;;;;;;;;;14.50;58.46;102999.38;1054130;28;697;-61
2022/01/22 03:36:28;;;;;;;;;;;;;;;14.51;58.20;102996.59;1053980;28;738;-61
2022/01/22 03:37:19;;;;;;;;;;;;;;;14.50;58.55;102994.88;1054622;28;1022;-62
2022/01/22 03:38:09;;;;;;;;;;;;;;;14.51;57.81;102995.75;1053959;28;657;-62
2022/01/22 03:39:00;;;;;;;;;;;;;;;14.51;58.60;102998.44;1054006;28;783;-62
2022/01/22 03:39:50;;;;;;;;;;;;;;;14.51;58.62;102988.53;1053922;28;678;-62
2022/01/22 03:40:41;;;;;;;;;;;;;;;14.50;58.98;103002.06;1053960;28;804;-62
2022/01/22 03:41:31;;;;;;;;;;;;;;;14.50;58.67;102994.00;1054064;28;638;-63
2022/01/22 03:42:21;;;;;;;;;;;;;;;14.51;57.95;102991.22;1053613;28;686;-62
2022/01/22 03:43:12;;;;;;;;;;;;;;;14.50;58.33;102996.69;1053918;28;1057;-63
2022/01/22 03:44:04;;;;;;;;;;;;;;;14.49;58.47;102994.94;1054067;28;768;-63
2022/01/22 03:44:55;;;;;;;;;;;;;;;14.48;58.03;102998.56;1053311;28;718;-61
2022/01/22 03:45:45;;;;;;;;;;;;;;;14.47;58.85;102995.03;1054066;28;764;-62
2022/01/22 03:46:36;;;;;;;;;;;;;;;14.48;58.55;103004.81;1054037;28;757;-62
2022/01/22 03:47:26;;;;;;;;;;;;;;;14.48;57.96;102999.44;1054709;28;1854;-62
2022/01/22 03:48:17;;;;;;;;;;;;;;;14.49;58.54;102994.94;1057328;28;1438;-62
2022/01/22 03:49:10;;;;;;;;;;;;;;;14.48;58.39;102999.44;1057632;28;805;-62
2022/01/22 03:50:00;;;;;;;;;;;;;;;14.48;58.08;102995.88;1057755;28;684;-62
2022/01/22 03:50:51;;;;;;;;;;;;;;;14.48;58.25;102996.75;1058844;28;1239;-63
2022/01/22 03:51:41;;;;;;;;;;;;;;;14.49;58.40;102998.50;1058190;28;696;-62
2022/01/22 03:52:32;;;;;;;;;;;;;;;14.49;58.10;102992.25;1058934;28;684;-62
2022/01/22 03:53:22;;;;;;;;;;;;;;;14.48;58.46;102993.22;1058089;28;845;-62
2022/01/22 03:54:13;;;;;;;;;;;;;;;14.48;58.71;103002.13;1057621;28;1083;-62
2022/01/22 03:55:03;;;;;;;;;;;;;;;14.48;58.66;102998.56;1057501;28;680;-62
2022/01/22 03:56:04;;;;;;;;;;;;;;;14.48;58.21;102999.44;1057668;28;693;-63
2022/01/22 03:56:54;;;;;;;;;;;;;;;14.49;58.53;102997.63;1058247;28;708;-63
2022/01/22 03:57:45;;;;;;;;;;;;;;;14.48;58.67;103001.25;1058164;28;871;-63
2022/01/22 03:58:35;;;;;;;;;;;;;;;14.47;58.56;103000.38;1057090;28;740;-63
2022/01/22 03:59:28;;;;;;;;;;;;;;;14.47;58.46;102999.50;1058169;28;858;-62
2022/01/22 04:00:18;;;;;;;;;;;;;;;14.48;57.94;102995.88;1053074;28;610;-63
2022/01/22 04:04:21;;;;;;;;;;;;;;;14.48;58.71;102993.22;1058756;28;636;-62
2022/01/22 04:05:12;;;;;;;;;;;;;;;14.46;58.05;102990.59;1057596;28;645;-62
2022/01/22 04:08:20;;;;;;;;;;;;;;;14.45;58.63;102996.91;1058760;28;705;-61
2022/01/22 04:09:14;;;;;;;;;;;;;;;14.46;58.34;103000.47;1057558;28;625;-62
2022/01/22 04:10:06;;;;;;;;;;;;;;;14.46;58.65;103000.47;1057441;28;750;-62
2022/01/22 04:10:56;;;;;;;;;;;;;;;14.45;58.63;102998.72;1057576;28;661;-62
2022/01/22 04:11:47;;;;;;;;;;;;;;;14.45;58.22;102996.91;1057795;28;724;-62
2022/01/22 04:13:35;;;;;;;;;;;;;;;14.45;58.92;103001.41;1058120;28;688;-62
2022/01/22 04:14:30;;;;;;;;;;;;;;;14.45;58.29;103001.41;1057734;28;812;-62
2022/01/22 04:15:24;;;;;;;;;;;;;;;14.45;58.20;103006.75;1057598;28;658;-61
2022/01/22 04:16:15;;;;;;;;;;;;;;;14.44;58.61;103003.22;1053884;28;829;-62
2022/01/22 04:17:20;;;;;;;;;;;;;;;14.43;58.71;103004.16;1054560;28;660;-61
2022/01/22 04:25:07;;;;;;;;;;;;;;;14.42;58.52;103004.22;1054438;28;727;-61
2022/01/22 04:26:41;;;;;;;;;;;;;;;14.41;58.11;103000.66;1054627;28;672;-61
2022/01/22 04:27:21;;;;;;;;;;;;;;;14.41;58.66;103002.47;1054478;28;704;-61
2022/01/22 04:28:12;;;;;;;;;;;;;;;14.40;58.86;103001.59;1053287;28;701;-61
2022/01/22 04:29:03;;;;;;;;;;;;;;;14.39;58.26;102999.81;1053359;28;779;-61
2022/01/22 04:29:54;;;;;;;;;;;;;;;14.40;58.66;102998.00;1053996;28;801;-61
2022/01/22 04:30:46;;;;;;;;;;;;;;;14.39;58.67;102996.28;1055364;28;1362;-61
2022/01/22 04:31:36;;;;;;;;;;;;;;;14.38;58.15;103000.75;1058396;28;641;-61
2022/01/22 04:32:27;;;;;;;;;;;;;;;14.38;58.41;102994.53;1054245;28;1786;-61
2022/01/22 04:33:17;;;;;;;;;;;;;;;14.39;58.13;102998.97;1054505;28;657;-61
2022/01/22 04:34:07;;;;;;;;;;;;;;;14.39;58.40;102998.97;1058813;28;688;-61
2022/01/22 04:34:58;;;;;;;;;;;;;;;14.39;58.19;102998.97;1058874;28;752;-60
2022/01/22 04:35:48;;;;;;;;;;;;;;;14.38;58.98;102992.72;1054716;28;613;-61
2022/01/22 04:36:39;;;;;;;;;;;;;;;14.38;58.55;102997.22;1054747;28;641;-61
2022/01/22 04:37:30;;;;;;;;;;;;;;;14.40;58.77;102995.34;1054256;28;709;-61
2022/01/22 04:38:20;;;;;;;;;;;;;;;14.39;58.48;103002.50;1054633;28;614;-61
2022/01/22 04:39:11;;;;;;;;;;;;;;;14.38;58.47;102995.41;1054552;28;772;-61
2022/01/22 04:40:01;;;;;;;;;;;;;;;14.38;58.88;102998.09;1054550;28;742;-61
2022/01/22 04:40:52;;;;;;;;;;;;;;;14.37;58.34;102993.66;1054707;28;633;-61
2022/01/22 04:41:42;;;;;;;;;;;;;;;14.38;58.68;102999.91;1054737;28;673;-60
2022/01/22 04:42:35;;;;;;;;;;;;;;;14.37;58.38;102993.66;1054616;28;704;-61
2022/01/22 04:43:26;;;;;;;;;;;;;;;14.37;58.13;102985.63;1054095;28;800;-61
2022/01/22 04:44:17;;;;;;;;;;;;;;;14.37;58.21;102995.47;1053972;28;615;-62
2022/01/22 04:45:17;;;;;;;;;;;;;;;14.36;58.44;102996.41;1054618;28;688;-62
2022/01/22 04:52:37;;;;;;;;;;;;;;;14.36;58.48;102991.03;1058727;28;1063;-62
2022/01/22 04:55:27;;;;;;;;;;;;;;;14.35;58.49;102991.97;1058412;28;1476;-63
2022/01/22 04:56:17;;;;;;;;;;;;;;;14.34;58.34;102988.44;1058335;28;653;-64
2022/01/22 04:57:08;;;;;;;;;;;;;;;14.34;58.27;102992.94;1058214;28;669;-64
2022/01/22 04:57:58;;;;;;;;;;;;;;;14.34;58.31;103000.97;1058020;28;899;-63
2022/01/22 04:58:48;;;;;;;;;;;;;;;14.35;58.92;102997.34;1058112;28;692;-64
2022/01/22 04:59:39;;;;;;;;;;;;;;;14.34;58.42;102998.28;1058863;28;693;-64
2022/01/22 05:00:31;;;;;;;;;;;;;;;14.34;58.63;102996.47;1058824;28;912;-63
2022/01/22 05:01:22;;;;;;;;;;;;;;;14.35;58.46;102994.66;1058902;28;719;-63
2022/01/22 05:02:12;;;;;;;;;;;;;;;14.34;58.24;102992.94;1055054;28;821;-63
2022/01/22 05:03:02;;;;;;;;;;;;;;;14.33;58.85;102994.72;1058048;28;1150;-63
2022/01/22 05:03:53;;;;;;;;;;;;;;;14.34;59.00;102999.16;1055233;28;770;-63
2022/01/22 05:04:43;;;;;;;;;;;;;;;14.34;58.93;102995.59;1054526;28;642;-62
2022/01/22 05:05:34;;;;;;;;;;;;;;;14.35;58.71;102989.31;1054621;28;1228;-62
2022/01/22 05:06:26;;;;;;;;;;;;;;;14.36;58.44;102997.28;1054484;28;724;-62
2022/01/22 05:07:16;;;;;;;;;;;;;;;14.36;58.49;102991.91;1054955;28;1489;-63
2022/01/22 05:08:07;;;;;;;;;;;;;;;14.35;58.83;102987.50;1054550;28;641;-62
2022/01/22 05:08:57;;;;;;;;;;;;;;;14.36;58.65;102988.34;1054469;28;613;-61
2022/01/22 05:09:48;;;;;;;;;;;;;;;14.36;58.66;102991.91;1054587;28;621;-62
2022/01/22 05:10:38;;;;;;;;;;;;;;;14.39;58.48;102996.28;1054554;28;836;-61
2022/01/22 05:11:28;;;;;;;;;;;;;;;14.39;58.57;102991.78;1054570;28;1961;-62
2022/01/22 05:12:19;;;;;;;;;;;;;;;14.41;57.96;102997.09;1054452;28;689;-62
2022/01/22 05:13:09;;;;;;;;;;;;;;;14.44;58.13;102995.16;1054486;28;613;-62
2022/01/22 05:14:00;;;;;;;;;;;;;;;14.47;58.12;102996.84;1054474;28;675;-62
2022/01/22 05:14:50;;;;;;;;;;;;;;;14.52;57.63;102992.97;1055360;28;1764;-62
2022/01/22 05:15:41;;;;;;;;;;;;;;;14.55;57.67;102991.97;1058718;28;707;-63
2022/01/22 05:16:32;;;;;;;;;;;;;;;14.59;57.63;102993.56;1058732;28;950;-62
2022/01/22 05:17:22;;;;;;;;;;;;;;;14.63;57.60;102989.78;1058858;28;662;-62
2022/01/22 05:18:13;;;;;;;;;;;;;;;14.65;56.92;102993.28;1058182;28;671;-62
2022/01/22 05:19:11;;;;;;;;;;;;;;;14.68;57.05;102992.25;1057935;28;800;-62
2022/01/22 05:20:10;;;;;;;;;;;;;;;14.71;56.87;102995.66;1058154;28;653;-62
2022/01/22 05:21:08;;;;;;;;;;;;;;;14.74;56.93;102998.19;1058635;28;890;-62
2022/01/22 05:22:07;;;;;;;;;;;;;;;14.78;56.77;102998.91;1058032;28;906;-62
2022/01/22 05:23:11;;;;;;;;;;;;;;;14.83;56.95;103003.13;1058043;28;942;-61
2022/01/22 05:24:03;;;;;;;;;;;;;;;14.85;56.66;102995.88;1058031;28;804;-63
2022/01/22 05:24:58;;;;;;;;;;;;;;;14.90;56.75;102993.81;1058079;28;933;-63
2022/01/22 05:25:59;;;;;;;;;;;;;;;14.92;56.99;102989.25;1058128;28;700;-63
2022/01/22 05:27:17;;;;;;;;;;;;;;;14.92;57.00;102991.94;1058123;28;800;-63
2022/01/22 05:30:25;;;;;;;;;;;;;;;15.01;56.62;102995.13;1059255;27;853;-62
2022/01/22 05:32:27;;;;;;;;;;;;;;;15.02;57.07;102989.69;1057964;28;1957;-63
2022/01/22 05:37:49;;;;;;;;;;;;;;;15.11;56.39;102991.03;1054405;28;929;-63
2022/01/22 05:38:39;;;;;;;;;;;;;;;15.09;56.48;102992.91;1054559;28;622;-63
2022/01/22 05:39:30;;;;;;;;;;;;;;;15.10;57.03;102992.84;1054456;28;934;-63
2022/01/22 05:40:20;;;;;;;;;;;;;;;15.13;56.40;102991.81;1054315;28;692;-63
2022/01/22 05:41:11;;;;;;;;;;;;;;;15.15;56.96;102997.97;1054387;28;661;-63
2022/01/22 05:42:01;;;;;;;;;;;;;;;15.14;56.51;102994.44;1054293;28;725;-63
2022/01/22 05:42:51;;;;;;;;;;;;;;;15.14;56.47;102996.25;1053833;28;716;-63
2022/01/22 05:43:42;;;;;;;;;;;;;;;15.17;57.03;102996.97;1054323;28;822;-63
2022/01/22 05:44:32;;;;;;;;;;;;;;;15.17;56.79;102996.97;1054461;28;705;-62
2022/01/22 05:45:23;;;;;;;;;;;;;;;15.17;56.54;103004.16;1053067;28;653;-63
2022/01/22 05:46:13;;;;;;;;;;;;;;;15.16;56.62;102992.53;1057129;28;1604;-63
2022/01/22 05:47:05;;;;;;;;;;;;;;;15.16;56.49;102995.22;1059191;27;763;-63
2022/01/22 05:47:56;;;;;;;;;;;;;;;15.17;56.46;102996.97;1058521;28;936;-63
2022/01/22 05:48:46;;;;;;;;;;;;;;;15.19;56.40;103007.63;1058012;28;708;-62
2022/01/22 05:49:41;;;;;;;;;;;;;;;15.17;56.77;103004.16;1057001;28;919;-62
2022/01/22 05:51:27;;;;;;;;;;;;;;;15.20;56.97;103004.00;1054387;28;1910;-61